createdAt,value
2022-10-07T00:01:03.558Z,100972.06
2022-10-07T00:03:33.019Z,100983.06
2022-10-07T00:06:02.519Z,100963.59
2022-10-07T00:08:30.881Z,100977.25
2022-10-07T00:10:58.998Z,100982.22
2022-10-07T00:13:27.083Z,100977.09
2022-10-07T00:15:54.858Z,100979.13
2022-10-07T00:18:22.689Z,100984.50
2022-10-07T00:20:51.848Z,100976.25
2022-10-07T00:23:19.678Z,100979.56
2022-10-07T00:25:47.474Z,100969.03
2022-10-07T00:28:15.306Z,100975.16
2022-10-07T00:30:44.133Z,100972.63
2022-10-07T00:33:11.955Z,100966.91
2022-10-07T00:35:39.797Z,100967.03
2022-10-07T00:38:09.017Z,100968.63
2022-10-07T00:40:36.815Z,100971.72
2022-10-07T00:43:20.221Z,100967.25
2022-10-07T00:45:48.300Z,100966.19
2022-10-07T00:48:19.779Z,100969.41
2022-10-07T00:50:51.938Z,100967.59
2022-10-07T00:53:22.275Z,100964.97
2022-10-07T00:55:50.235Z,100961.53
2022-10-07T00:58:19.324Z,100960.63
2022-10-07T01:00:48.204Z,100953.47
2022-10-07T01:03:16.153Z,100962.53
2022-10-07T01:05:44.012Z,100956.34
2022-10-07T01:08:12.244Z,100961.47
2022-10-07T01:10:51.661Z,100949.97
2022-10-07T01:13:32.056Z,100949.22
2022-10-07T01:16:08.829Z,100938.16
2022-10-07T01:18:45.741Z,100955.28
2022-10-07T01:21:22.731Z,100953.66
2022-10-07T01:24:15.948Z,100957.09
2022-10-07T01:27:01.074Z,100955.38
2022-10-07T01:29:36.235Z,100950.44
2022-10-07T01:32:09.934Z,100949.47
2022-10-07T01:34:40.501Z,100946.97
2022-10-07T01:37:15.035Z,100945.28
2022-10-07T01:39:48.117Z,100941.81
2022-10-07T01:42:20.663Z,100943.41
2022-10-07T01:44:58.371Z,100942.56
2022-10-07T01:47:26.768Z,100939.06
2022-10-07T01:49:54.617Z,100944.59
2022-10-07T01:52:42.338Z,100946.50
2022-10-07T01:55:47.354Z,100941.50
2022-10-07T01:58:36.622Z,100940.59
2022-10-07T02:01:15.166Z,100928.94
2022-10-07T02:04:01.355Z,100936.41
2022-10-07T02:06:39.316Z,100931.34
2022-10-07T02:09:14.532Z,100933.88
2022-10-07T02:11:47.399Z,100927.03
2022-10-07T02:14:20.936Z,100929.50
2022-10-07T02:16:52.583Z,100922.56
2022-10-07T02:19:32.499Z,100936.84
2022-10-07T02:22:02.700Z,100929.84
2022-10-07T02:24:35.487Z,100926.19
2022-10-07T02:27:11.254Z,100928.34
2022-10-07T02:29:44.306Z,100922.44
2022-10-07T02:32:16.225Z,100925.72
2022-10-07T02:34:46.088Z,100928.19
2022-10-07T02:37:19.116Z,100930.84
2022-10-07T02:39:48.573Z,100918.88
2022-10-07T02:42:24.107Z,100920.72
2022-10-07T02:44:56.831Z,100925.63
2022-10-07T02:47:31.869Z,100926.41
2022-10-07T02:50:05.275Z,100927.94
2022-10-07T02:52:35.336Z,100926.97
2022-10-07T02:55:07.602Z,100924.31
2022-10-07T02:57:39.343Z,100923.31
2022-10-07T03:00:11.467Z,100917.94
2022-10-07T03:02:54.007Z,100915.94
2022-10-07T03:05:26.314Z,100913.78
2022-10-07T03:08:00.654Z,100916.88
2022-10-07T03:10:28.908Z,100918.31
2022-10-07T03:12:57.831Z,100910.06
2022-10-07T03:15:27.463Z,100906.91
2022-10-07T03:17:56.223Z,100914.50
2022-10-07T03:20:24.660Z,100913.78
2022-10-07T03:22:52.543Z,100912.19
2022-10-07T03:25:20.601Z,100913.31
2022-10-07T03:27:48.959Z,100911.41
2022-10-07T03:30:20.162Z,100913.72
2022-10-07T03:32:55.016Z,100915.38
2022-10-07T03:35:23.909Z,100907.84
2022-10-07T03:37:51.970Z,100905.34
2022-10-07T03:40:20.377Z,100910.47
2022-10-07T03:42:49.991Z,100906.50
2022-10-07T03:45:20.779Z,100909.34
2022-10-07T03:47:48.622Z,100914.69
2022-10-07T03:50:18.232Z,100919.88
2022-10-07T03:52:46.145Z,100915.00
2022-10-07T03:55:14.092Z,100918.38
2022-10-07T03:57:58.443Z,100914.19
2022-10-07T04:00:28.363Z,100908.13
2022-10-07T04:02:58.174Z,100912.06
2022-10-07T04:05:28.464Z,100912.00
2022-10-07T04:07:56.683Z,100910.34
2022-10-07T04:10:24.720Z,100896.88
2022-10-07T04:12:53.160Z,100902.75
2022-10-07T04:15:22.184Z,100892.38
2022-10-07T04:17:50.298Z,100895.44
2022-10-07T04:20:20.147Z,100898.38
2022-10-07T04:22:49.354Z,100890.66
2022-10-07T04:25:35.796Z,100895.94
2022-10-07T04:28:16.890Z,100896.03
2022-10-07T04:30:51.060Z,100873.78
2022-10-07T04:33:22.321Z,100881.38
2022-10-07T04:35:51.553Z,100876.09
2022-10-07T04:38:25.234Z,100890.72
2022-10-07T04:40:55.605Z,100885.72
2022-10-07T04:43:24.375Z,100882.22
2022-10-07T04:46:02.864Z,100886.75
2022-10-07T04:48:31.545Z,100890.72
2022-10-07T04:51:03.289Z,100889.19
2022-10-07T04:53:32.648Z,100889.41
2022-10-07T04:56:01.437Z,100888.75
2022-10-07T04:58:31.447Z,100885.25
2022-10-07T05:01:01.946Z,100891.03
2022-10-07T05:03:30.876Z,100889.56
2022-10-07T05:06:05.757Z,100897.34
2022-10-07T05:08:36.888Z,100893.31
2022-10-07T05:11:06.428Z,100889.94
2022-10-07T05:13:42.945Z,100890.72
2022-10-07T05:16:12.071Z,100894.09
2022-10-07T05:18:40.982Z,100877.72
2022-10-07T05:21:12.422Z,100891.25
2022-10-07T05:23:46.006Z,100891.13
2022-10-07T05:26:18.279Z,100891.13
2022-10-07T05:28:51.319Z,100891.41
2022-10-07T05:31:26.262Z,100899.91
2022-10-07T05:33:57.536Z,100898.31
2022-10-07T05:36:27.176Z,100883.75
2022-10-07T05:38:59.457Z,100896.47
2022-10-07T05:41:44.957Z,100887.03
2022-10-07T05:44:13.771Z,100898.25
2022-10-07T05:46:42.197Z,100904.31
2022-10-07T05:49:10.392Z,100894.38
2022-10-07T05:51:38.269Z,100893.72
2022-10-07T05:54:08.622Z,100886.56
2022-10-07T05:56:40.791Z,100896.28
2022-10-07T05:59:10.377Z,100893.97
2022-10-07T06:01:40.472Z,100896.47
2022-10-07T06:04:13.744Z,100902.59
2022-10-07T06:06:45.065Z,100900.13
2022-10-07T06:09:33.483Z,100904.34
2022-10-07T06:12:23.328Z,100907.69
2022-10-07T06:14:53.355Z,100909.59
2022-10-07T06:17:21.397Z,100917.06
2022-10-07T06:19:51.818Z,100916.34
2022-10-07T06:22:21.821Z,100918.84
2022-10-07T06:24:52.027Z,100918.19
2022-10-07T06:27:20.284Z,100922.53
2022-10-07T06:29:48.226Z,100920.88
2022-10-07T06:32:16.039Z,100909.84
2022-10-07T06:34:45.322Z,100931.44
2022-10-07T06:37:14.267Z,100923.28
2022-10-07T06:39:42.692Z,100925.03
2022-10-07T06:42:12.282Z,100924.13
2022-10-07T06:44:46.918Z,100920.06
2022-10-07T06:47:18.481Z,100917.50
2022-10-07T06:49:47.805Z,100904.16
2022-10-07T06:52:15.686Z,100916.50
2022-10-07T06:54:43.749Z,100905.72
2022-10-07T06:57:43.704Z,100918.03
2022-10-07T07:00:04.925Z,100915.16
2022-10-07T07:02:34.616Z,100918.81
2022-10-07T07:05:04.719Z,100906.25
2022-10-07T07:07:32.940Z,100920.94
2022-10-07T07:10:01.218Z,100917.78
2022-10-07T07:12:33.288Z,100917.88
2022-10-07T07:15:01.858Z,100909.59
2022-10-07T07:17:29.745Z,100908.91
2022-10-07T07:19:58.436Z,100901.59
2022-10-07T07:22:26.425Z,100905.09
2022-10-07T07:24:54.229Z,100905.00
2022-10-07T07:27:22.484Z,100895.72
2022-10-07T07:29:51.668Z,100896.75
2022-10-07T07:32:19.783Z,100888.31
2022-10-07T07:34:48.335Z,100901.19
2022-10-07T07:37:21.359Z,100904.03
2022-10-07T07:39:52.790Z,100899.94
2022-10-07T07:42:21.753Z,100897.47
2022-10-07T07:44:51.281Z,100894.28
2022-10-07T07:47:21.359Z,100891.16
2022-10-07T07:49:50.340Z,100889.56
2022-10-07T07:52:25.540Z,100893.25
2022-10-07T07:54:57.903Z,100893.47
2022-10-07T07:57:26.054Z,100894.44
2022-10-07T07:59:55.765Z,100896.38
2022-10-07T08:02:25.232Z,100887.31
2022-10-07T08:04:54.715Z,100886.56
2022-10-07T08:07:24.078Z,100879.84
2022-10-07T08:09:51.964Z,100884.50
2022-10-07T08:12:21.071Z,100887.16
2022-10-07T08:14:52.130Z,100886.47
2022-10-07T08:17:22.146Z,100887.41
2022-10-07T08:19:50.453Z,100885.03
2022-10-07T08:22:19.264Z,100882.72
2022-10-07T08:24:50.790Z,100877.03
2022-10-07T08:27:21.438Z,100876.31
2022-10-07T08:29:49.543Z,100877.31
2022-10-07T08:32:17.506Z,100862.25
2022-10-07T08:34:46.670Z,100866.56
2022-10-07T08:37:14.445Z,100858.25
2022-10-07T08:39:42.225Z,100871.00
2022-10-07T08:42:15.886Z,100867.75
2022-10-07T08:44:47.626Z,100859.44
2022-10-07T08:47:22.126Z,100852.78
2022-10-07T08:50:04.285Z,100853.81
2022-10-07T08:52:41.808Z,100844.75
2022-10-07T08:55:18.547Z,100844.28
2022-10-07T08:58:09.967Z,100838.53
2022-10-07T09:00:43.679Z,100843.75
2022-10-07T09:03:25.621Z,100836.31
2022-10-07T09:05:57.061Z,100840.72
2022-10-07T09:08:32.496Z,100834.03
2022-10-07T09:11:15.833Z,100831.69
2022-10-07T09:13:48.897Z,100832.63
2022-10-07T09:16:23.032Z,100836.91
2022-10-07T09:18:54.183Z,100829.38
2022-10-07T09:21:28.637Z,100826.94
2022-10-07T09:23:58.433Z,100821.13
2022-10-07T09:26:27.661Z,100821.53
2022-10-07T09:28:55.560Z,100820.84
2022-10-07T09:31:25.846Z,100817.47
2022-10-07T09:33:54.285Z,100810.78
2022-10-07T09:36:24.947Z,100810.78
2022-10-07T09:38:53.756Z,100811.69
2022-10-07T09:41:30.358Z,100810.94
2022-10-07T09:44:03.710Z,100811.78
2022-10-07T09:46:46.788Z,100806.03
2022-10-07T09:49:32.513Z,100799.25
2022-10-07T09:52:03.278Z,100800.31
2022-10-07T09:54:32.999Z,100797.00
2022-10-07T09:57:03.483Z,100790.25
2022-10-07T09:59:32.703Z,100780.34
2022-10-07T10:02:23.108Z,100786.50
2022-10-07T10:04:53.076Z,100781.56
2022-10-07T10:07:26.477Z,100779.06
2022-10-07T10:09:55.886Z,100775.09
2022-10-07T10:12:26.132Z,100765.06
2022-10-07T10:14:55.703Z,100766.78
2022-10-07T10:17:28.151Z,100762.72
2022-10-07T10:19:56.793Z,100756.09
2022-10-07T10:22:28.017Z,100751.38
2022-10-07T10:25:14.221Z,100748.34
2022-10-07T10:27:51.917Z,100746.78
2022-10-07T10:30:22.597Z,100742.63
2022-10-07T10:33:14.643Z,100741.84
2022-10-07T10:35:51.361Z,100736.84
2022-10-07T10:38:29.986Z,100735.16
2022-10-07T10:41:11.320Z,100729.31
2022-10-07T10:43:56.312Z,100723.34
2022-10-07T10:46:33.687Z,100714.88
2022-10-07T10:49:11.705Z,100708.34
2022-10-07T10:51:55.720Z,100703.41
2022-10-07T10:54:32.665Z,100700.03
2022-10-07T10:57:06.649Z,100694.06
2022-10-07T10:59:52.315Z,100693.19
2022-10-07T11:02:38.748Z,100681.44
2022-10-07T11:05:14.308Z,100683.16
2022-10-07T11:07:47.673Z,100670.91
2022-10-07T11:10:22.518Z,100666.03
2022-10-07T11:12:56.543Z,100665.03
2022-10-07T11:15:27.705Z,100653.28
2022-10-07T11:18:01.717Z,100655.19
2022-10-07T11:20:34.727Z,100652.75
2022-10-07T11:23:07.536Z,100648.50
2022-10-07T11:25:43.022Z,100644.28
2022-10-07T11:28:18.309Z,100644.25
2022-10-07T11:30:53.547Z,100634.09
2022-10-07T11:33:28.653Z,100630.63
2022-10-07T11:36:00.788Z,100629.00
2022-10-07T11:38:33.346Z,100625.66
2022-10-07T11:41:09.155Z,100621.34
2022-10-07T11:43:44.629Z,100615.44
2022-10-07T11:46:20.112Z,100606.97
2022-10-07T11:48:54.812Z,100603.59
2022-10-07T11:51:27.944Z,100603.69
2022-10-07T11:53:59.498Z,100598.69
2022-10-07T11:56:33.157Z,100597.91
2022-10-07T11:59:03.507Z,100592.91
2022-10-07T12:01:55.229Z,100597.16
2022-10-07T12:04:26.209Z,100590.41
2022-10-07T12:07:31.430Z,100589.63
2022-10-07T12:10:23.261Z,100579.63
2022-10-07T12:12:55.603Z,100572.13
2022-10-07T12:15:35.845Z,100570.50
2022-10-07T12:18:30.706Z,100578.28
2022-10-07T12:21:07.869Z,100563.13
2022-10-07T12:23:43.478Z,100556.41
2022-10-07T12:26:52.071Z,100561.56
2022-10-07T12:29:28.912Z,100553.97
2022-10-07T12:31:57.069Z,100557.38
2022-10-07T12:34:46.037Z,100548.16
2022-10-07T12:37:50.258Z,100549.91
2022-10-07T12:40:23.888Z,100542.34
2022-10-07T12:42:57.394Z,100533.03
2022-10-07T12:45:29.174Z,100528.81
2022-10-07T12:48:00.238Z,100519.56
2022-10-07T12:50:31.711Z,100521.25
2022-10-07T12:53:03.802Z,100528.06
2022-10-07T12:55:36.989Z,100512.84
2022-10-07T12:58:44.125Z,100511.16
2022-10-07T13:01:26.754Z,100492.56
2022-10-07T13:04:25.423Z,100492.59
2022-10-07T13:07:26.574Z,100496.81
2022-10-07T13:10:19.072Z,100484.06
2022-10-07T13:12:51.736Z,100480.63
2022-10-07T13:15:30.369Z,100474.72
2022-10-07T13:18:10.673Z,100478.13
2022-10-07T13:20:48.607Z,100460.31
2022-10-07T13:23:19.360Z,100462.00
2022-10-07T13:25:53.515Z,100466.19
2022-10-07T13:28:23.894Z,100454.28
2022-10-07T13:30:53.576Z,100455.97
2022-10-07T13:33:26.466Z,100455.91
2022-10-07T13:36:07.821Z,100460.09
2022-10-07T13:38:36.111Z,100456.63
2022-10-07T13:41:09.756Z,100452.28
2022-10-07T13:43:38.618Z,100450.56
2022-10-07T13:46:10.391Z,100444.56
2022-10-07T13:48:45.590Z,100454.75
2022-10-07T13:51:24.083Z,100446.31
2022-10-07T13:53:55.106Z,100438.59
2022-10-07T13:56:26.869Z,100428.38
2022-10-07T13:58:56.619Z,100432.50
2022-10-07T14:01:28.146Z,100430.75
2022-10-07T14:04:11.463Z,100420.59
2022-10-07T14:06:48.289Z,100421.47
2022-10-07T14:09:21.939Z,100413.78
2022-10-07T14:11:55.095Z,100417.13
2022-10-07T14:14:27.180Z,100403.59
2022-10-07T14:16:59.256Z,100412.00
2022-10-07T14:19:32.958Z,100408.56
2022-10-07T14:22:03.649Z,100405.09
2022-10-07T14:24:32.021Z,100403.31
2022-10-07T14:27:00.439Z,100395.56
2022-10-07T14:29:37.623Z,100404.78
2022-10-07T14:32:31.933Z,100392.00
2022-10-07T14:35:22.812Z,100398.78
2022-10-07T14:37:50.904Z,100392.75
2022-10-07T14:40:23.283Z,100388.41
2022-10-07T14:42:54.172Z,100385.81
2022-10-07T14:45:22.438Z,100389.19
2022-10-07T14:47:50.697Z,100385.78
2022-10-07T14:50:20.350Z,100378.09
2022-10-07T14:52:51.889Z,100382.41
2022-10-07T14:55:23.315Z,100376.44
2022-10-07T14:57:51.277Z,100365.44
2022-10-07T15:00:20.975Z,100370.53
2022-10-07T15:02:50.200Z,100363.75
2022-10-07T15:05:19.877Z,100365.44
2022-10-07T15:07:47.741Z,100366.25
2022-10-07T15:10:17.268Z,100358.63
2022-10-07T15:12:45.548Z,100358.66
2022-10-07T15:15:14.632Z,100360.38
2022-10-07T15:17:43.822Z,100352.03
2022-10-07T15:20:13.921Z,100350.41
2022-10-07T15:22:43.724Z,100345.41
2022-10-07T15:25:12.806Z,100347.16
2022-10-07T15:27:40.643Z,100342.13
2022-10-07T15:30:09.714Z,100343.91
2022-10-07T15:32:37.564Z,100344.00
2022-10-07T15:35:05.968Z,100339.03
2022-10-07T15:37:34.119Z,100338.28
2022-10-07T15:40:06.546Z,100333.31
2022-10-07T15:42:34.393Z,100337.69
2022-10-07T15:45:02.196Z,100346.31
2022-10-07T15:47:30.347Z,100354.06
2022-10-07T15:49:58.188Z,100340.63
2022-10-07T15:52:26.060Z,100341.63
2022-10-07T15:54:54.254Z,100337.50
2022-10-07T15:57:24.349Z,100338.41
2022-10-07T15:59:54.714Z,100322.38
2022-10-07T16:02:22.662Z,100340.13
2022-10-07T16:04:50.498Z,100345.22
2022-10-07T16:07:18.331Z,100338.47
2022-10-07T16:09:46.142Z,100337.63
2022-10-07T16:12:14.205Z,100329.97
2022-10-07T16:14:43.373Z,100335.00
2022-10-07T16:17:11.253Z,100340.94
2022-10-07T16:19:39.045Z,100336.66
2022-10-07T16:22:06.860Z,100332.41
2022-10-07T16:24:35.666Z,100333.22
2022-10-07T16:27:03.670Z,100334.88
2022-10-07T16:29:48.913Z,100331.44
2022-10-07T16:32:18.073Z,100323.84
2022-10-07T16:34:46.892Z,100319.50
2022-10-07T16:37:15.685Z,100322.88
2022-10-07T16:39:43.465Z,100335.53
2022-10-07T16:42:11.321Z,100328.75
2022-10-07T16:44:39.082Z,100325.31
2022-10-07T16:47:06.900Z,100327.84
2022-10-07T16:49:36.464Z,100326.09
2022-10-07T16:52:04.466Z,100326.06
2022-10-07T16:54:35.363Z,100323.50
2022-10-07T16:57:03.259Z,100324.28
2022-10-07T16:59:31.051Z,100320.06
2022-10-07T17:02:02.268Z,100327.66
2022-10-07T17:04:30.326Z,100327.63
2022-10-07T17:06:59.447Z,100325.91
2022-10-07T17:09:27.281Z,100328.41
2022-10-07T17:11:55.245Z,100323.31
2022-10-07T17:14:23.854Z,100322.44
2022-10-07T17:16:54.627Z,100330.03
2022-10-07T17:19:25.526Z,100315.63
2022-10-07T17:21:54.613Z,100324.91
2022-10-07T17:24:25.168Z,100324.88
2022-10-07T17:26:53.510Z,100318.94
2022-10-07T17:29:23.310Z,100318.00
2022-10-07T17:31:51.597Z,100324.75
2022-10-07T17:34:21.052Z,100324.75
2022-10-07T17:36:49.195Z,100322.16
2022-10-07T17:39:17.232Z,100323.00
2022-10-07T17:41:46.470Z,100327.19
2022-10-07T17:44:14.297Z,100318.69
2022-10-07T17:46:42.762Z,100323.75
2022-10-07T17:49:13.223Z,100323.75
2022-10-07T17:51:42.582Z,100325.41
2022-10-07T17:54:12.000Z,100323.72
2022-10-07T17:56:40.226Z,100323.72
2022-10-07T17:59:09.478Z,100325.38
2022-10-07T18:01:37.697Z,100330.41
2022-10-07T18:04:07.529Z,100332.91
2022-10-07T18:06:37.253Z,100311.72
2022-10-07T18:09:06.745Z,100321.84
2022-10-07T18:11:53.085Z,100325.28
2022-10-07T18:14:39.673Z,100317.66
2022-10-07T18:17:08.995Z,100331.19
2022-10-07T18:19:36.791Z,100323.69
2022-10-07T18:22:04.610Z,100327.09
2022-10-07T18:24:32.675Z,100327.97
2022-10-07T18:27:02.136Z,100305.94
2022-10-07T18:29:33.079Z,100327.00
2022-10-07T18:32:01.867Z,100327.75
2022-10-07T18:34:29.988Z,100328.59
2022-10-07T18:36:57.809Z,100323.50
2022-10-07T18:39:27.364Z,100332.69
2022-10-07T18:41:55.506Z,100326.75
2022-10-07T18:44:23.594Z,100328.44
2022-10-07T18:46:53.226Z,100320.78
2022-10-07T18:49:21.108Z,100318.16
2022-10-07T18:51:50.617Z,100317.28
2022-10-07T18:54:18.989Z,100310.34
2022-10-07T18:56:48.234Z,100331.47
2022-10-07T18:59:16.414Z,100312.81
2022-10-07T19:01:49.838Z,100317.84
2022-10-07T19:04:20.513Z,100300.81
2022-10-07T19:06:48.893Z,100311.81
2022-10-07T19:09:18.816Z,100313.44
2022-10-07T19:11:47.366Z,100317.53
2022-10-07T19:14:14.509Z,100321.69
2022-10-07T19:16:44.233Z,100314.06
2022-10-07T19:19:16.841Z,100315.84
2022-10-07T19:21:47.498Z,100318.22
2022-10-07T19:24:16.583Z,100315.66
2022-10-07T19:26:46.214Z,100316.53
2022-10-07T19:29:15.285Z,100317.41
2022-10-07T19:31:45.621Z,100319.84
2022-10-07T19:34:16.059Z,100315.66
2022-10-07T19:36:47.266Z,100325.75
2022-10-07T19:39:17.248Z,100317.28
2022-10-07T19:41:45.620Z,100311.31
2022-10-07T19:44:13.964Z,100312.94
2022-10-07T19:46:42.137Z,100309.50
2022-10-07T19:49:10.576Z,100305.94
2022-10-07T19:51:38.871Z,100311.84
2022-10-07T19:54:09.997Z,100303.44
2022-10-07T19:56:39.131Z,100304.28
2022-10-07T19:59:08.800Z,100295.81
2022-10-07T20:01:39.351Z,100282.22
2022-10-07T20:04:09.357Z,100305.88
2022-10-07T20:06:38.282Z,100309.19
2022-10-07T20:09:09.478Z,100317.50
2022-10-07T20:11:37.588Z,100310.66
2022-10-07T20:14:06.535Z,100318.09
2022-10-07T20:16:35.091Z,100296.91
2022-10-07T20:19:05.674Z,100295.84
2022-10-07T20:21:35.751Z,100306.94
2022-10-07T20:24:05.135Z,100304.28
2022-10-07T20:26:36.975Z,100305.94
2022-10-07T20:29:07.041Z,100307.50
2022-10-07T20:31:37.095Z,100290.38
2022-10-07T20:34:05.877Z,100301.34
2022-10-07T20:36:36.231Z,100298.69
2022-10-07T20:39:24.156Z,100294.31
2022-10-07T20:42:12.647Z,100295.88
2022-10-07T20:44:40.572Z,100297.72
2022-10-07T20:47:10.221Z,100297.03
2022-10-07T20:49:41.132Z,100287.09
2022-10-07T20:52:11.278Z,100287.16
2022-10-07T20:54:39.080Z,100285.41
2022-10-07T20:57:08.482Z,100286.19
2022-10-07T20:59:36.273Z,100289.34
2022-10-07T21:02:09.145Z,100291.69
2022-10-07T21:04:37.524Z,100269.69
2022-10-07T21:07:05.476Z,100283.41
2022-10-07T21:09:36.501Z,100281.91
2022-10-07T21:12:07.351Z,100273.59
2022-10-07T21:14:37.588Z,100285.38
2022-10-07T21:17:06.225Z,100286.09
2022-10-07T21:19:35.638Z,100287.66
2022-10-07T21:22:03.929Z,100278.22
2022-10-07T21:24:34.171Z,100284.03
2022-10-07T21:27:02.851Z,100276.53
2022-10-07T21:29:32.135Z,100281.66
2022-10-07T21:32:02.030Z,100278.31
2022-10-07T21:34:30.657Z,100281.72
2022-10-07T21:36:59.092Z,100282.41
2022-10-07T21:39:26.915Z,100283.97
2022-10-07T21:41:55.325Z,100283.06
2022-10-07T21:44:23.212Z,100280.66
2022-10-07T21:46:51.393Z,100276.47
2022-10-07T21:49:20.546Z,100271.44
2022-10-07T21:51:48.334Z,100280.75
2022-10-07T21:54:16.242Z,100274.91
2022-10-07T21:56:46.081Z,100269.78
2022-10-07T21:59:14.506Z,100270.59
2022-10-07T22:01:43.378Z,100264.69
2022-10-07T22:04:17.423Z,100261.31
2022-10-07T22:07:19.275Z,100259.84
2022-10-07T22:09:47.236Z,100250.78
2022-10-07T22:12:15.515Z,100247.28
2022-10-07T22:14:44.524Z,100246.34
2022-10-07T22:17:14.097Z,100247.13
2022-10-07T22:19:41.977Z,100232.75
2022-10-07T22:22:12.516Z,100244.72
2022-10-07T22:24:40.389Z,100238.00
2022-10-07T22:27:08.189Z,100244.81
2022-10-07T22:29:38.176Z,100240.69
2022-10-07T22:32:06.024Z,100232.91
2022-10-07T22:35:02.997Z,100233.56
2022-10-07T22:37:32.317Z,100237.63
2022-10-07T22:40:00.116Z,100235.00
2022-10-07T22:42:27.906Z,100229.91
2022-10-07T22:44:55.720Z,100228.97
2022-10-07T22:47:23.485Z,100228.97
2022-10-07T22:49:51.280Z,100226.50
2022-10-07T22:52:19.065Z,100223.00
2022-10-07T22:54:48.203Z,100223.59
2022-10-07T22:57:16.558Z,100221.88
2022-10-07T22:59:44.328Z,100215.59
2022-10-07T23:02:12.188Z,100221.09
2022-10-07T23:04:40.163Z,100208.41
2022-10-07T23:07:07.984Z,100211.09
2022-10-07T23:09:35.769Z,100207.56
2022-10-07T23:12:05.789Z,100213.28
2022-10-07T23:14:33.653Z,100219.06
2022-10-07T23:17:01.539Z,100208.75
2022-10-07T23:19:30.036Z,100213.56
2022-10-07T23:21:57.831Z,100212.63
2022-10-07T23:24:28.217Z,100217.66
2022-10-07T23:26:56.050Z,100213.97
2022-10-07T23:29:26.560Z,100219.03
2022-10-07T23:31:54.347Z,100213.22
2022-10-07T23:34:22.115Z,100207.47
2022-10-07T23:36:49.866Z,100206.84
2022-10-07T23:39:18.032Z,100199.41
2022-10-07T23:41:45.820Z,100206.16
2022-10-07T23:44:13.674Z,100194.31
2022-10-07T23:46:42.924Z,100188.13
2022-10-07T23:49:10.949Z,100189.56
2022-10-07T23:51:38.753Z,100184.31
2022-10-07T23:54:06.645Z,100180.84
2022-10-07T23:56:34.623Z,100183.41
2022-10-07T23:59:03.261Z,100173.16
